sensor_id;sensor_type;location;lat;lon;timestamp;P1;durP1;ratioP1;P2;durP2;ratioP2
36725;SDS011;44936;52.086;5.150;2023-06-26T00:00:40;6.32;;;3.55;;
36725;SDS011;44936;52.086;5.150;2023-06-26T00:03:05;6.10;;;3.25;;
36725;SDS011;44936;52.086;5.150;2023-06-26T00:05:30;5.05;;;3.13;;
36725;SDS011;44936;52.086;5.150;2023-06-26T00:07:56;6.28;;;3.10;;
36725;SDS011;44936;52.086;5.150;2023-06-26T00:10:25;5.85;;;2.95;;
36725;SDS011;44936;52.086;5.150;2023-06-26T00:12:51;4.10;;;2.63;;
36725;SDS011;44936;52.086;5.150;2023-06-26T00:15:17;5.05;;;2.78;;
36725;SDS011;44936;52.086;5.150;2023-06-26T00:17:42;3.72;;;2.50;;
36725;SDS011;44936;52.086;5.150;2023-06-26T00:20:10;4.85;;;2.80;;
36725;SDS011;44936;52.086;5.150;2023-06-26T00:22:36;3.95;;;2.58;;
36725;SDS011;44936;52.086;5.150;2023-06-26T00:25:05;4.35;;;2.83;;
36725;SDS011;44936;52.086;5.150;2023-06-26T00:27:31;3.65;;;2.63;;
36725;SDS011;44936;52.086;5.150;2023-06-26T00:29:56;4.43;;;2.47;;
36725;SDS011;44936;52.086;5.150;2023-06-26T00:32:25;5.68;;;2.67;;
36725;SDS011;44936;52.086;5.150;2023-06-26T00:34:50;4.75;;;2.45;;
36725;SDS011;44936;52.086;5.150;2023-06-26T00:37:16;3.65;;;2.25;;
36725;SDS011;44936;52.086;5.150;2023-06-26T00:39:41;4.50;;;2.55;;
36725;SDS011;44936;52.086;5.150;2023-06-26T00:42:07;6.85;;;2.60;;
36725;SDS011;44936;52.086;5.150;2023-06-26T00:44:32;4.97;;;2.67;;
36725;SDS011;44936;52.086;5.150;2023-06-26T00:46:58;4.15;;;2.63;;
36725;SDS011;44936;52.086;5.150;2023-06-26T00:49:24;4.55;;;2.35;;
36725;SDS011;44936;52.086;5.150;2023-06-26T00:51:49;5.07;;;2.78;;
36725;SDS011;44936;52.086;5.150;2023-06-26T00:54:15;3.63;;;2.63;;
36725;SDS011;44936;52.086;5.150;2023-06-26T00:56:45;4.15;;;2.45;;
36725;SDS011;44936;52.086;5.150;2023-06-26T00:59:11;6.47;;;2.72;;
36725;SDS011;44936;52.086;5.150;2023-06-26T01:01:37;8.45;;;2.95;;
36725;SDS011;44936;52.086;5.150;2023-06-26T01:04:02;5.22;;;2.63;;
36725;SDS011;44936;52.086;5.150;2023-06-26T01:06:28;4.32;;;2.15;;
36725;SDS011;44936;52.086;5.150;2023-06-26T01:08:57;4.90;;;2.40;;
36725;SDS011;44936;52.086;5.150;2023-06-26T01:11:24;5.10;;;2.78;;
36725;SDS011;44936;52.086;5.150;2023-06-26T01:13:49;6.13;;;2.70;;
36725;SDS011;44936;52.086;5.150;2023-06-26T01:16:16;6.00;;;2.53;;
36725;SDS011;44936;52.086;5.150;2023-06-26T01:18:44;5.63;;;2.42;;
36725;SDS011;44936;52.086;5.150;2023-06-26T01:21:10;6.10;;;2.72;;
36725;SDS011;44936;52.086;5.150;2023-06-26T01:23:49;4.38;;;2.60;;
36725;SDS011;44936;52.086;5.150;2023-06-26T01:26:20;5.57;;;2.53;;
36725;SDS011;44936;52.086;5.150;2023-06-26T01:28:47;5.60;;;2.03;;
36725;SDS011;44936;52.086;5.150;2023-06-26T01:31:15;3.90;;;2.13;;
36725;SDS011;44936;52.086;5.150;2023-06-26T01:33:41;4.68;;;2.80;;
36725;SDS011;44936;52.086;5.150;2023-06-26T01:36:08;4.50;;;2.22;;
36725;SDS011;44936;52.086;5.150;2023-06-26T01:38:34;4.97;;;1.80;;
36725;SDS011;44936;52.086;5.150;2023-06-26T01:41:00;3.70;;;1.77;;
36725;SDS011;44936;52.086;5.150;2023-06-26T01:46:03;5.63;;;2.10;;
36725;SDS011;44936;52.086;5.150;2023-06-26T01:48:33;5.55;;;1.95;;
36725;SDS011;44936;52.086;5.150;2023-06-26T01:51:03;3.38;;;2.03;;
36725;SDS011;44936;52.086;5.150;2023-06-26T01:53:32;5.68;;;1.98;;
36725;SDS011;44936;52.086;5.150;2023-06-26T01:58:32;4.22;;;2.03;;
36725;SDS011;44936;52.086;5.150;2023-06-26T02:00:59;4.50;;;1.60;;
36725;SDS011;44936;52.086;5.150;2023-06-26T02:03:25;3.95;;;1.98;;
36725;SDS011;44936;52.086;5.150;2023-06-26T02:05:51;5.43;;;1.90;;
36725;SDS011;44936;52.086;5.150;2023-06-26T02:08:17;5.25;;;1.90;;
36725;SDS011;44936;52.086;5.150;2023-06-26T02:10:42;6.30;;;2.30;;
36725;SDS011;44936;52.086;5.150;2023-06-26T02:13:08;3.92;;;1.48;;
36725;SDS011;44936;52.086;5.150;2023-06-26T02:15:33;6.43;;;1.75;;
36725;SDS011;44936;52.086;5.150;2023-06-26T02:17:59;4.55;;;1.65;;
36725;SDS011;44936;52.086;5.150;2023-06-26T02:20:24;3.28;;;1.48;;
36725;SDS011;44936;52.086;5.150;2023-06-26T02:22:49;7.47;;;1.98;;
36725;SDS011;44936;52.086;5.150;2023-06-26T02:25:15;9.48;;;2.10;;
36725;SDS011;44936;52.086;5.150;2023-06-26T02:27:41;5.25;;;1.35;;
36725;SDS011;44936;52.086;5.150;2023-06-26T02:30:07;3.83;;;1.80;;
36725;SDS011;44936;52.086;5.150;2023-06-26T02:32:33;3.90;;;1.50;;
36725;SDS011;44936;52.086;5.150;2023-06-26T02:34:59;4.00;;;1.88;;
36725;SDS011;44936;52.086;5.150;2023-06-26T02:37:24;7.82;;;2.17;;
36725;SDS011;44936;52.086;5.150;2023-06-26T02:39:50;4.65;;;2.35;;
36725;SDS011;44936;52.086;5.150;2023-06-26T02:42:15;4.13;;;1.52;;
36725;SDS011;44936;52.086;5.150;2023-06-26T02:44:40;5.00;;;1.80;;
36725;SDS011;44936;52.086;5.150;2023-06-26T02:47:06;4.45;;;1.88;;
36725;SDS011;44936;52.086;5.150;2023-06-26T02:49:31;3.60;;;1.80;;
36725;SDS011;44936;52.086;5.150;2023-06-26T02:51:56;6.00;;;2.05;;
36725;SDS011;44936;52.086;5.150;2023-06-26T02:54:22;4.50;;;1.80;;
36725;SDS011;44936;52.086;5.150;2023-06-26T02:56:50;4.38;;;1.40;;
36725;SDS011;44936;52.086;5.150;2023-06-26T02:59:15;4.82;;;2.35;;
36725;SDS011;44936;52.086;5.150;2023-06-26T03:01:41;7.10;;;2.10;;
36725;SDS011;44936;52.086;5.150;2023-06-26T03:04:06;6.63;;;1.50;;
36725;SDS011;44936;52.086;5.150;2023-06-26T03:06:32;4.68;;;1.75;;
36725;SDS011;44936;52.086;5.150;2023-06-26T03:08:57;4.10;;;2.10;;
36725;SDS011;44936;52.086;5.150;2023-06-26T03:11:22;9.23;;;1.92;;
36725;SDS011;44936;52.086;5.150;2023-06-26T03:13:48;4.22;;;1.85;;
36725;SDS011;44936;52.086;5.150;2023-06-26T03:16:13;4.78;;;1.70;;
36725;SDS011;44936;52.086;5.150;2023-06-26T03:18:38;4.72;;;1.77;;
36725;SDS011;44936;52.086;5.150;2023-06-26T03:21:04;6.55;;;2.17;;
36725;SDS011;44936;52.086;5.150;2023-06-26T03:23:30;7.55;;;1.55;;
36725;SDS011;44936;52.086;5.150;2023-06-26T03:25:55;5.68;;;2.00;;
36725;SDS011;44936;52.086;5.150;2023-06-26T03:28:20;4.95;;;1.75;;
36725;SDS011;44936;52.086;5.150;2023-06-26T03:30:46;13.05;;;2.30;;
36725;SDS011;44936;52.086;5.150;2023-06-26T03:33:11;6.90;;;2.22;;
36725;SDS011;44936;52.086;5.150;2023-06-26T03:35:36;6.93;;;1.83;;
36725;SDS011;44936;52.086;5.150;2023-06-26T03:38:03;3.90;;;1.80;;
36725;SDS011;44936;52.086;5.150;2023-06-26T03:40:29;3.67;;;1.80;;
36725;SDS011;44936;52.086;5.150;2023-06-26T03:42:55;6.75;;;1.70;;
36725;SDS011;44936;52.086;5.150;2023-06-26T03:45:20;5.43;;;1.90;;
36725;SDS011;44936;52.086;5.150;2023-06-26T03:47:46;4.70;;;1.85;;
36725;SDS011;44936;52.086;5.150;2023-06-26T03:50:18;7.10;;;1.90;;
36725;SDS011;44936;52.086;5.150;2023-06-26T03:52:44;7.50;;;1.83;;
36725;SDS011;44936;52.086;5.150;2023-06-26T03:55:09;5.47;;;1.60;;
36725;SDS011;44936;52.086;5.150;2023-06-26T03:57:35;4.40;;;1.83;;
36725;SDS011;44936;52.086;5.150;2023-06-26T04:00:00;5.95;;;2.00;;
36725;SDS011;44936;52.086;5.150;2023-06-26T04:02:26;5.80;;;2.20;;
36725;SDS011;44936;52.086;5.150;2023-06-26T04:04:51;4.47;;;1.70;;
36725;SDS011;44936;52.086;5.150;2023-06-26T04:07:17;2.53;;;1.50;;
36725;SDS011;44936;52.086;5.150;2023-06-26T04:09:42;4.75;;;1.63;;
36725;SDS011;44936;52.086;5.150;2023-06-26T04:12:08;3.90;;;1.98;;
36725;SDS011;44936;52.086;5.150;2023-06-26T04:14:33;5.03;;;1.80;;
36725;SDS011;44936;52.086;5.150;2023-06-26T04:16:59;9.52;;;2.08;;
36725;SDS011;44936;52.086;5.150;2023-06-26T04:19:26;7.15;;;1.65;;
36725;SDS011;44936;52.086;5.150;2023-06-26T04:21:52;5.72;;;1.88;;
36725;SDS011;44936;52.086;5.150;2023-06-26T04:24:17;8.70;;;2.20;;
36725;SDS011;44936;52.086;5.150;2023-06-26T04:26:43;4.78;;;1.77;;
36725;SDS011;44936;52.086;5.150;2023-06-26T04:29:10;6.35;;;1.70;;
36725;SDS011;44936;52.086;5.150;2023-06-26T04:31:35;4.72;;;1.58;;
36725;SDS011;44936;52.086;5.150;2023-06-26T04:34:01;3.75;;;1.63;;
36725;SDS011;44936;52.086;5.150;2023-06-26T04:36:27;5.20;;;1.80;;
36725;SDS011;44936;52.086;5.150;2023-06-26T04:38:53;6.03;;;1.92;;
36725;SDS011;44936;52.086;5.150;2023-06-26T04:41:19;8.38;;;1.98;;
36725;SDS011;44936;52.086;5.150;2023-06-26T04:43:45;2.95;;;1.60;;
36725;SDS011;44936;52.086;5.150;2023-06-26T04:46:10;4.43;;;2.22;;
36725;SDS011;44936;52.086;5.150;2023-06-26T04:48:35;4.15;;;1.80;;
36725;SDS011;44936;52.086;5.150;2023-06-26T04:51:01;3.67;;;1.48;;
36725;SDS011;44936;52.086;5.150;2023-06-26T04:53:26;3.38;;;1.45;;
36725;SDS011;44936;52.086;5.150;2023-06-26T04:55:52;5.22;;;1.50;;
36725;SDS011;44936;52.086;5.150;2023-06-26T04:58:18;3.83;;;1.30;;
36725;SDS011;44936;52.086;5.150;2023-06-26T05:00:43;2.42;;;1.30;;
36725;SDS011;44936;52.086;5.150;2023-06-26T05:03:12;4.25;;;1.55;;
36725;SDS011;44936;52.086;5.150;2023-06-26T05:05:39;4.90;;;1.70;;
36725;SDS011;44936;52.086;5.150;2023-06-26T05:08:17;5.30;;;1.52;;
36725;SDS011;44936;52.086;5.150;2023-06-26T05:10:44;4.35;;;1.80;;
36725;SDS011;44936;52.086;5.150;2023-06-26T05:13:10;4.95;;;1.40;;
36725;SDS011;44936;52.086;5.150;2023-06-26T05:15:35;4.35;;;1.40;;
36725;SDS011;44936;52.086;5.150;2023-06-26T05:18:01;5.15;;;1.85;;
36725;SDS011;44936;52.086;5.150;2023-06-26T05:20:26;3.22;;;1.65;;
36725;SDS011;44936;52.086;5.150;2023-06-26T05:22:52;3.67;;;1.40;;
36725;SDS011;44936;52.086;5.150;2023-06-26T05:25:18;3.78;;;1.40;;
36725;SDS011;44936;52.086;5.150;2023-06-26T05:27:46;1.90;;;1.30;;
36725;SDS011;44936;52.086;5.150;2023-06-26T05:30:13;3.22;;;1.67;;
36725;SDS011;44936;52.086;5.150;2023-06-26T05:32:39;2.05;;;1.42;;
36725;SDS011;44936;52.086;5.150;2023-06-26T05:35:05;4.75;;;1.58;;
36725;SDS011;44936;52.086;5.150;2023-06-26T05:37:31;4.18;;;1.48;;
36725;SDS011;44936;52.086;5.150;2023-06-26T05:39:58;4.60;;;1.27;;
36725;SDS011;44936;52.086;5.150;2023-06-26T05:42:26;3.65;;;1.30;;
36725;SDS011;44936;52.086;5.150;2023-06-26T05:44:52;2.42;;;1.08;;
36725;SDS011;44936;52.086;5.150;2023-06-26T05:47:18;5.95;;;1.65;;
36725;SDS011;44936;52.086;5.150;2023-06-26T05:49:43;3.65;;;1.40;;
36725;SDS011;44936;52.086;5.150;2023-06-26T05:52:09;3.03;;;1.20;;
36725;SDS011;44936;52.086;5.150;2023-06-26T05:54:35;3.22;;;1.10;;
36725;SDS011;44936;52.086;5.150;2023-06-26T05:57:01;2.95;;;1.60;;
36725;SDS011;44936;52.086;5.150;2023-06-26T05:59:28;3.08;;;1.00;;
36725;SDS011;44936;52.086;5.150;2023-06-26T06:01:56;1.63;;;1.25;;
36725;SDS011;44936;52.086;5.150;2023-06-26T06:04:22;4.60;;;1.42;;
36725;SDS011;44936;52.086;5.150;2023-06-26T06:06:50;5.30;;;1.83;;
36725;SDS011;44936;52.086;5.150;2023-06-26T06:09:15;5.30;;;1.45;;
36725;SDS011;44936;52.086;5.150;2023-06-26T06:11:41;2.63;;;1.20;;
36725;SDS011;44936;52.086;5.150;2023-06-26T06:14:06;3.10;;;1.42;;
36725;SDS011;44936;52.086;5.150;2023-06-26T06:16:32;2.92;;;1.10;;
36725;SDS011;44936;52.086;5.150;2023-06-26T06:18:57;2.50;;;1.38;;
36725;SDS011;44936;52.086;5.150;2023-06-26T06:21:23;1.25;;;0.80;;
36725;SDS011;44936;52.086;5.150;2023-06-26T06:23:48;3.50;;;1.20;;
36725;SDS011;44936;52.086;5.150;2023-06-26T06:26:13;2.17;;;1.30;;
36725;SDS011;44936;52.086;5.150;2023-06-26T06:28:39;1.77;;;0.90;;
36725;SDS011;44936;52.086;5.150;2023-06-26T06:31:04;1.27;;;0.98;;
36725;SDS011;44936;52.086;5.150;2023-06-26T06:33:30;2.65;;;1.10;;
36725;SDS011;44936;52.086;5.150;2023-06-26T06:35:55;1.77;;;1.00;;
36725;SDS011;44936;52.086;5.150;2023-06-26T06:38:20;3.53;;;1.15;;
36725;SDS011;44936;52.086;5.150;2023-06-26T06:40:46;1.98;;;0.95;;
36725;SDS011;44936;52.086;5.150;2023-06-26T06:43:11;7.25;;;1.23;;
36725;SDS011;44936;52.086;5.150;2023-06-26T06:45:36;2.58;;;1.00;;
36725;SDS011;44936;52.086;5.150;2023-06-26T06:48:03;1.60;;;1.30;;
36725;SDS011;44936;52.086;5.150;2023-06-26T06:50:28;4.95;;;1.05;;
36725;SDS011;44936;52.086;5.150;2023-06-26T06:52:54;6.38;;;2.05;;
36725;SDS011;44936;52.086;5.150;2023-06-26T06:55:19;2.95;;;1.30;;
36725;SDS011;44936;52.086;5.150;2023-06-26T06:57:44;3.47;;;1.10;;
36725;SDS011;44936;52.086;5.150;2023-06-26T07:00:11;5.18;;;1.27;;
36725;SDS011;44936;52.086;5.150;2023-06-26T07:02:39;3.78;;;1.20;;
36725;SDS011;44936;52.086;5.150;2023-06-26T07:05:08;4.43;;;1.25;;
36725;SDS011;44936;52.086;5.150;2023-06-26T07:07:35;3.17;;;1.17;;
36725;SDS011;44936;52.086;5.150;2023-06-26T07:10:08;2.58;;;1.00;;
36725;SDS011;44936;52.086;5.150;2023-06-26T07:12:35;1.95;;;1.25;;
36725;SDS011;44936;52.086;5.150;2023-06-26T07:15:02;5.93;;;1.30;;
36725;SDS011;44936;52.086;5.150;2023-06-26T07:17:29;2.85;;;0.98;;
36725;SDS011;44936;52.086;5.150;2023-06-26T07:19:58;5.22;;;1.30;;
36725;SDS011;44936;52.086;5.150;2023-06-26T07:22:24;6.82;;;1.80;;
36725;SDS011;44936;52.086;5.150;2023-06-26T07:24:50;3.92;;;0.90;;
36725;SDS011;44936;52.086;5.150;2023-06-26T07:27:15;2.85;;;1.17;;
36725;SDS011;44936;52.086;5.150;2023-06-26T07:29:43;2.90;;;1.38;;
36725;SDS011;44936;52.086;5.150;2023-06-26T07:32:08;1.30;;;0.70;;
36725;SDS011;44936;52.086;5.150;2023-06-26T07:34:34;3.40;;;1.10;;
36725;SDS011;44936;52.086;5.150;2023-06-26T07:36:59;3.25;;;1.00;;
36725;SDS011;44936;52.086;5.150;2023-06-26T07:39:25;2.58;;;1.10;;
36725;SDS011;44936;52.086;5.150;2023-06-26T07:41:50;1.95;;;1.23;;
36725;SDS011;44936;52.086;5.150;2023-06-26T07:44:16;2.13;;;1.25;;
36725;SDS011;44936;52.086;5.150;2023-06-26T07:46:41;2.20;;;1.02;;
36725;SDS011;44936;52.086;5.150;2023-06-26T07:49:07;3.35;;;1.63;;
36725;SDS011;44936;52.086;5.150;2023-06-26T07:51:32;3.17;;;0.93;;
36725;SDS011;44936;52.086;5.150;2023-06-26T07:53:57;2.95;;;1.00;;
36725;SDS011;44936;52.086;5.150;2023-06-26T07:56:23;3.05;;;0.80;;
36725;SDS011;44936;52.086;5.150;2023-06-26T07:58:48;2.63;;;0.88;;
36725;SDS011;44936;52.086;5.150;2023-06-26T08:01:13;3.00;;;0.70;;
36725;SDS011;44936;52.086;5.150;2023-06-26T08:03:39;3.33;;;0.80;;
36725;SDS011;44936;52.086;5.150;2023-06-26T08:06:05;3.88;;;0.82;;
36725;SDS011;44936;52.086;5.150;2023-06-26T08:08:30;2.45;;;0.98;;
36725;SDS011;44936;52.086;5.150;2023-06-26T08:10:56;1.77;;;0.63;;
36725;SDS011;44936;52.086;5.150;2023-06-26T08:13:21;3.83;;;0.60;;
36725;SDS011;44936;52.086;5.150;2023-06-26T08:15:47;1.80;;;0.75;;
36725;SDS011;44936;52.086;5.150;2023-06-26T08:18:12;3.22;;;0.75;;
36725;SDS011;44936;52.086;5.150;2023-06-26T08:20:37;1.02;;;0.57;;
36725;SDS011;44936;52.086;5.150;2023-06-26T08:23:03;1.45;;;0.57;;
36725;SDS011;44936;52.086;5.150;2023-06-26T08:25:29;3.72;;;0.63;;
36725;SDS011;44936;52.086;5.150;2023-06-26T08:27:54;2.75;;;0.85;;
36725;SDS011;44936;52.086;5.150;2023-06-26T08:30:20;3.50;;;0.82;;
36725;SDS011;44936;52.086;5.150;2023-06-26T08:32:46;4.30;;;0.70;;
36725;SDS011;44936;52.086;5.150;2023-06-26T08:35:11;4.05;;;0.88;;
36725;SDS011;44936;52.086;5.150;2023-06-26T08:37:37;3.00;;;0.63;;
36725;SDS011;44936;52.086;5.150;2023-06-26T08:40:03;2.25;;;0.52;;
36725;SDS011;44936;52.086;5.150;2023-06-26T08:42:29;4.45;;;0.55;;
36725;SDS011;44936;52.086;5.150;2023-06-26T08:44:54;4.65;;;0.47;;
36725;SDS011;44936;52.086;5.150;2023-06-26T08:47:20;2.65;;;0.70;;
36725;SDS011;44936;52.086;5.150;2023-06-26T08:49:47;3.30;;;0.90;;
36725;SDS011;44936;52.086;5.150;2023-06-26T08:52:23;2.42;;;0.77;;
36725;SDS011;44936;52.086;5.150;2023-06-26T08:54:57;3.90;;;0.73;;
36725;SDS011;44936;52.086;5.150;2023-06-26T08:57:23;1.02;;;0.50;;
36725;SDS011;44936;52.086;5.150;2023-06-26T08:59:51;1.65;;;0.52;;
36725;SDS011;44936;52.086;5.150;2023-06-26T09:02:17;3.78;;;0.60;;
36725;SDS011;44936;52.086;5.150;2023-06-26T09:04:42;2.67;;;0.70;;
36725;SDS011;44936;52.086;5.150;2023-06-26T09:07:08;6.05;;;0.95;;
36725;SDS011;44936;52.086;5.150;2023-06-26T09:09:34;0.95;;;0.63;;
36725;SDS011;44936;52.086;5.150;2023-06-26T09:12:01;0.88;;;0.70;;
36725;SDS011;44936;52.086;5.150;2023-06-26T09:14:28;4.53;;;0.55;;
36725;SDS011;44936;52.086;5.150;2023-06-26T09:16:54;1.38;;;0.60;;
36725;SDS011;44936;52.086;5.150;2023-06-26T09:19:19;7.38;;;1.58;;
36725;SDS011;44936;52.086;5.150;2023-06-26T09:21:45;1.05;;;0.70;;
36725;SDS011;44936;52.086;5.150;2023-06-26T09:24:14;3.05;;;0.70;;
36725;SDS011;44936;52.086;5.150;2023-06-26T09:26:41;1.40;;;0.85;;
36725;SDS011;44936;52.086;5.150;2023-06-26T09:29:06;0.98;;;0.50;;
36725;SDS011;44936;52.086;5.150;2023-06-26T09:31:32;3.75;;;0.90;;
36725;SDS011;44936;52.086;5.150;2023-06-26T09:33:59;1.08;;;0.60;;
36725;SDS011;44936;52.086;5.150;2023-06-26T09:36:27;1.40;;;0.65;;
36725;SDS011;44936;52.086;5.150;2023-06-26T09:38:54;2.17;;;0.77;;
36725;SDS011;44936;52.086;5.150;2023-06-26T09:41:20;3.65;;;0.82;;
36725;SDS011;44936;52.086;5.150;2023-06-26T09:43:49;1.95;;;1.00;;
36725;SDS011;44936;52.086;5.150;2023-06-26T09:46:16;1.85;;;0.70;;
36725;SDS011;44936;52.086;5.150;2023-06-26T09:48:42;0.75;;;0.73;;
36725;SDS011;44936;52.086;5.150;2023-06-26T09:51:08;2.65;;;0.57;;
36725;SDS011;44936;52.086;5.150;2023-06-26T09:53:35;3.40;;;0.50;;
36725;SDS011;44936;52.086;5.150;2023-06-26T09:56:05;1.70;;;0.50;;
36725;SDS011;44936;52.086;5.150;2023-06-26T09:58:32;1.63;;;0.60;;
36725;SDS011;44936;52.086;5.150;2023-06-26T10:00:58;2.05;;;0.60;;
36725;SDS011;44936;52.086;5.150;2023-06-26T10:03:23;0.57;;;0.55;;
36725;SDS011;44936;52.086;5.150;2023-06-26T10:05:49;0.45;;;0.43;;
36725;SDS011;44936;52.086;5.150;2023-06-26T10:08:15;0.60;;;0.40;;
36725;SDS011;44936;52.086;5.150;2023-06-26T10:10:42;2.28;;;1.05;;
36725;SDS011;44936;52.086;5.150;2023-06-26T10:13:11;2.33;;;0.57;;
36725;SDS011;44936;52.086;5.150;2023-06-26T10:18:09;0.47;;;0.45;;
36725;SDS011;44936;52.086;5.150;2023-06-26T10:20:35;0.88;;;0.50;;
36725;SDS011;44936;52.086;5.150;2023-06-26T10:23:01;1.10;;;0.50;;
36725;SDS011;44936;52.086;5.150;2023-06-26T10:25:30;0.88;;;0.50;;
36725;SDS011;44936;52.086;5.150;2023-06-26T10:27:57;1.20;;;1.10;;
36725;SDS011;44936;52.086;5.150;2023-06-26T10:30:26;1.00;;;0.75;;
36725;SDS011;44936;52.086;5.150;2023-06-26T10:32:54;1.77;;;0.80;;
36725;SDS011;44936;52.086;5.150;2023-06-26T10:35:21;2.00;;;1.10;;
36725;SDS011;44936;52.086;5.150;2023-06-26T10:37:48;1.90;;;0.60;;
36725;SDS011;44936;52.086;5.150;2023-06-26T10:40:20;0.98;;;0.77;;
36725;SDS011;44936;52.086;5.150;2023-06-26T10:42:47;1.48;;;0.50;;
36725;SDS011;44936;52.086;5.150;2023-06-26T10:45:19;0.65;;;0.50;;
36725;SDS011;44936;52.086;5.150;2023-06-26T10:47:46;0.52;;;0.52;;
36725;SDS011;44936;52.086;5.150;2023-06-26T10:50:16;1.17;;;0.40;;
36725;SDS011;44936;52.086;5.150;2023-06-26T10:52:42;0.40;;;0.40;;
36725;SDS011;44936;52.086;5.150;2023-06-26T10:55:10;1.55;;;0.55;;
36725;SDS011;44936;52.086;5.150;2023-06-26T10:57:36;2.70;;;0.38;;
36725;SDS011;44936;52.086;5.150;2023-06-26T11:00:11;2.80;;;0.60;;
36725;SDS011;44936;52.086;5.150;2023-06-26T11:02:49;1.25;;;0.40;;
36725;SDS011;44936;52.086;5.150;2023-06-26T11:05:28;0.85;;;0.50;;
36725;SDS011;44936;52.086;5.150;2023-06-26T11:10:50;2.70;;;0.30;;
36725;SDS011;44936;52.086;5.150;2023-06-26T11:13:16;1.00;;;0.45;;
36725;SDS011;44936;52.086;5.150;2023-06-26T11:15:43;1.88;;;0.70;;
36725;SDS011;44936;52.086;5.150;2023-06-26T11:18:12;3.67;;;0.90;;
36725;SDS011;44936;52.086;5.150;2023-06-26T11:20:38;2.63;;;0.30;;
36725;SDS011;44936;52.086;5.150;2023-06-26T11:23:07;1.15;;;0.40;;
36725;SDS011;44936;52.086;5.150;2023-06-26T11:25:37;1.50;;;0.60;;
36725;SDS011;44936;52.086;5.150;2023-06-26T11:28:03;2.38;;;0.35;;
36725;SDS011;44936;52.086;5.150;2023-06-26T11:30:29;1.60;;;0.70;;
36725;SDS011;44936;52.086;5.150;2023-06-26T11:33:29;1.10;;;0.47;;
36725;SDS011;44936;52.086;5.150;2023-06-26T11:35:51;0.82;;;0.50;;
36725;SDS011;44936;52.086;5.150;2023-06-26T11:38:16;0.45;;;0.40;;
36725;SDS011;44936;52.086;5.150;2023-06-26T11:40:42;1.40;;;0.50;;
36725;SDS011;44936;52.086;5.150;2023-06-26T11:43:07;1.52;;;0.40;;
36725;SDS011;44936;52.086;5.150;2023-06-26T11:45:32;1.02;;;0.40;;
36725;SDS011;44936;52.086;5.150;2023-06-26T11:47:58;0.98;;;0.35;;
36725;SDS011;44936;52.086;5.150;2023-06-26T11:50:24;2.00;;;0.40;;
36725;SDS011;44936;52.086;5.150;2023-06-26T11:52:56;2.50;;;0.50;;
36725;SDS011;44936;52.086;5.150;2023-06-26T11:55:23;2.35;;;0.38;;
36725;SDS011;44936;52.086;5.150;2023-06-26T11:57:57;0.60;;;0.30;;
36725;SDS011;44936;52.086;5.150;2023-06-26T12:00:23;0.47;;;0.32;;
36725;SDS011;44936;52.086;5.150;2023-06-26T12:02:48;0.57;;;0.30;;
36725;SDS011;44936;52.086;5.150;2023-06-26T12:05:17;2.40;;;0.40;;
36725;SDS011;44936;52.086;5.150;2023-06-26T12:07:45;0.40;;;0.30;;
36725;SDS011;44936;52.086;5.150;2023-06-26T12:10:12;2.00;;;0.60;;
36725;SDS011;44936;52.086;5.150;2023-06-26T12:12:39;1.83;;;0.80;;
36725;SDS011;44936;52.086;5.150;2023-06-26T12:15:06;2.42;;;0.40;;
36725;SDS011;44936;52.086;5.150;2023-06-26T12:17:33;0.93;;;0.52;;
36725;SDS011;44936;52.086;5.150;2023-06-26T12:20:04;1.45;;;0.30;;
36725;SDS011;44936;52.086;5.150;2023-06-26T12:22:34;0.85;;;0.30;;
36725;SDS011;44936;52.086;5.150;2023-06-26T12:25:00;1.83;;;0.40;;
36725;SDS011;44936;52.086;5.150;2023-06-26T12:27:25;1.98;;;0.30;;
36725;SDS011;44936;52.086;5.150;2023-06-26T12:29:52;0.70;;;0.30;;
36725;SDS011;44936;52.086;5.150;2023-06-26T12:32:18;0.52;;;0.30;;
36725;SDS011;44936;52.086;5.150;2023-06-26T12:34:47;1.15;;;0.30;;
36725;SDS011;44936;52.086;5.150;2023-06-26T12:37:14;0.70;;;0.57;;
36725;SDS011;44936;52.086;5.150;2023-06-26T12:39:50;0.80;;;0.28;;
36725;SDS011;44936;52.086;5.150;2023-06-26T12:42:18;2.65;;;0.43;;
36725;SDS011;44936;52.086;5.150;2023-06-26T12:44:44;2.13;;;0.38;;
36725;SDS011;44936;52.086;5.150;2023-06-26T12:47:10;1.33;;;0.35;;
36725;SDS011;44936;52.086;5.150;2023-06-26T12:49:38;1.50;;;0.50;;
36725;SDS011;44936;52.086;5.150;2023-06-26T12:52:09;1.52;;;0.40;;
36725;SDS011;44936;52.086;5.150;2023-06-26T12:54:36;0.43;;;0.20;;
36725;SDS011;44936;52.086;5.150;2023-06-26T12:57:04;0.85;;;0.43;;
36725;SDS011;44936;52.086;5.150;2023-06-26T12:59:30;1.30;;;0.50;;
36725;SDS011;44936;52.086;5.150;2023-06-26T13:01:56;0.65;;;0.40;;
36725;SDS011;44936;52.086;5.150;2023-06-26T13:04:22;0.40;;;0.28;;
36725;SDS011;44936;52.086;5.150;2023-06-26T13:06:47;1.98;;;0.30;;
36725;SDS011;44936;52.086;5.150;2023-06-26T13:09:13;2.75;;;0.50;;
36725;SDS011;44936;52.086;5.150;2023-06-26T13:11:39;2.70;;;0.50;;
36725;SDS011;44936;52.086;5.150;2023-06-26T13:14:04;0.77;;;0.47;;
36725;SDS011;44936;52.086;5.150;2023-06-26T13:16:30;2.95;;;0.40;;
36725;SDS011;44936;52.086;5.150;2023-06-26T13:18:55;2.88;;;0.30;;
36725;SDS011;44936;52.086;5.150;2023-06-26T13:21:23;1.85;;;0.30;;
36725;SDS011;44936;52.086;5.150;2023-06-26T13:23:48;1.23;;;0.40;;
36725;SDS011;44936;52.086;5.150;2023-06-26T13:26:13;1.13;;;0.40;;
36725;SDS011;44936;52.086;5.150;2023-06-26T13:28:39;2.42;;;0.90;;
36725;SDS011;44936;52.086;5.150;2023-06-26T13:31:04;0.60;;;0.30;;
36725;SDS011;44936;52.086;5.150;2023-06-26T13:33:30;0.65;;;0.25;;
36725;SDS011;44936;52.086;5.150;2023-06-26T13:35:56;0.82;;;0.40;;
36725;SDS011;44936;52.086;5.150;2023-06-26T13:38:22;1.85;;;0.50;;
36725;SDS011;44936;52.086;5.150;2023-06-26T13:40:51;2.03;;;0.35;;
36725;SDS011;44936;52.086;5.150;2023-06-26T13:43:20;0.98;;;0.43;;
36725;SDS011;44936;52.086;5.150;2023-06-26T13:45:46;2.05;;;0.40;;
36725;SDS011;44936;52.086;5.150;2023-06-26T13:48:11;0.38;;;0.30;;
36725;SDS011;44936;52.086;5.150;2023-06-26T13:50:37;1.45;;;0.20;;
36725;SDS011;44936;52.086;5.150;2023-06-26T13:53:03;0.40;;;0.30;;
36725;SDS011;44936;52.086;5.150;2023-06-26T13:55:28;2.55;;;0.28;;
36725;SDS011;44936;52.086;5.150;2023-06-26T13:57:53;4.35;;;0.65;;
36725;SDS011;44936;52.086;5.150;2023-06-26T14:00:20;2.05;;;0.38;;
36725;SDS011;44936;52.086;5.150;2023-06-26T14:02:47;0.40;;;0.30;;
36725;SDS011;44936;52.086;5.150;2023-06-26T14:05:12;1.58;;;0.40;;
36725;SDS011;44936;52.086;5.150;2023-06-26T14:07:38;0.47;;;0.30;;
36725;SDS011;44936;52.086;5.150;2023-06-26T14:10:04;1.58;;;0.50;;
36725;SDS011;44936;52.086;5.150;2023-06-26T14:12:31;0.60;;;0.30;;
36725;SDS011;44936;52.086;5.150;2023-06-26T14:14:58;1.45;;;0.63;;
36725;SDS011;44936;52.086;5.150;2023-06-26T14:17:24;0.80;;;0.68;;
36725;SDS011;44936;52.086;5.150;2023-06-26T14:19:53;2.53;;;0.30;;
36725;SDS011;44936;52.086;5.150;2023-06-26T14:22:19;0.82;;;0.22;;
36725;SDS011;44936;52.086;5.150;2023-06-26T14:24:45;1.25;;;0.50;;
36725;SDS011;44936;52.086;5.150;2023-06-26T14:27:10;1.42;;;0.30;;
36725;SDS011;44936;52.086;5.150;2023-06-26T14:29:36;0.85;;;0.35;;
36725;SDS011;44936;52.086;5.150;2023-06-26T14:32:02;1.88;;;0.45;;
36725;SDS011;44936;52.086;5.150;2023-06-26T14:34:28;0.43;;;0.30;;
36725;SDS011;44936;52.086;5.150;2023-06-26T14:36:53;2.20;;;0.20;;
36725;SDS011;44936;52.086;5.150;2023-06-26T14:39:19;0.75;;;0.30;;
36725;SDS011;44936;52.086;5.150;2023-06-26T14:41:44;0.35;;;0.20;;
36725;SDS011;44936;52.086;5.150;2023-06-26T14:44:10;1.00;;;0.30;;
36725;SDS011;44936;52.086;5.150;2023-06-26T14:46:36;2.85;;;0.68;;
36725;SDS011;44936;52.086;5.150;2023-06-26T14:49:02;1.58;;;0.50;;
36725;SDS011;44936;52.086;5.150;2023-06-26T14:51:28;0.40;;;0.38;;
36725;SDS011;44936;52.086;5.150;2023-06-26T14:53:53;1.55;;;0.60;;